createdAt,value
2023-08-27T00:00:21.715Z,73.31
2023-08-27T00:03:28.333Z,73.75
2023-08-27T00:06:43.326Z,73.07
2023-08-27T00:09:52.695Z,73.48
2023-08-27T00:12:59.435Z,73.14
2023-08-27T00:16:10.476Z,72.70
2023-08-27T00:19:20.462Z,72.70
2023-08-27T00:22:31.734Z,72.29
2023-08-27T00:25:40.925Z,72.29
2023-08-27T00:28:47.961Z,71.62
2023-08-27T00:32:11.524Z,72.21
2023-08-27T00:35:26.614Z,72.28
2023-08-27T00:38:37.288Z,72.08
2023-08-27T00:41:44.953Z,71.66
2023-08-27T00:44:53.154Z,72.20
2023-08-27T00:48:00.624Z,71.57
2023-08-27T00:51:12.619Z,72.69
2023-08-27T00:54:28.571Z,71.79
2023-08-27T00:57:40.568Z,71.72
2023-08-27T01:00:47.808Z,71.88
2023-08-27T01:03:53.795Z,71.00
2023-08-27T01:07:13.761Z,70.76
2023-08-27T01:10:45.770Z,70.65
2023-08-27T01:14:00.762Z,70.46
2023-08-27T01:17:16.367Z,70.67
2023-08-27T01:20:23.767Z,70.90
2023-08-27T01:23:33.905Z,70.12
2023-08-27T01:26:49.593Z,70.48
2023-08-27T01:30:12.761Z,70.80
2023-08-27T01:33:28.108Z,70.92
2023-08-27T01:36:38.377Z,69.67
2023-08-27T01:39:48.196Z,70.89
2023-08-27T01:43:01.600Z,70.68
2023-08-27T01:46:08.800Z,70.29
2023-08-27T01:49:18.760Z,69.73
2023-08-27T01:52:26.711Z,69.68
2023-08-27T01:55:38.710Z,69.67
2023-08-27T01:58:50.432Z,70.26
2023-08-27T02:01:59.637Z,70.36
2023-08-27T02:05:13.954Z,70.42
2023-08-27T02:08:22.327Z,70.06
2023-08-27T02:11:31.566Z,69.52
2023-08-27T02:14:44.769Z,70.11
2023-08-27T02:17:53.438Z,69.72
2023-08-27T02:21:06.729Z,68.99
2023-08-27T02:24:15.956Z,69.68
2023-08-27T02:27:29.677Z,70.32
2023-08-27T02:30:43.682Z,70.45
2023-08-27T02:33:55.776Z,69.78
2023-08-27T02:37:04.657Z,70.06
2023-08-27T02:40:15.189Z,70.11
2023-08-27T02:43:24.316Z,69.80
2023-08-27T02:46:30.157Z,68.62
2023-08-27T02:49:36.868Z,68.34
2023-08-27T02:52:43.868Z,69.10
2023-08-27T02:55:54.914Z,69.11
2023-08-27T02:59:11.811Z,68.97
2023-08-27T03:02:19.779Z,68.79
2023-08-27T03:05:32.700Z,69.16
2023-08-27T03:08:40.000Z,69.00
2023-08-27T03:11:46.697Z,69.10
2023-08-27T03:14:58.787Z,69.24
2023-08-27T03:18:10.872Z,69.27
2023-08-27T03:21:19.130Z,69.05
2023-08-27T03:24:25.102Z,69.47
2023-08-27T03:27:31.717Z,69.22
2023-08-27T03:30:43.553Z,69.05
2023-08-27T03:33:50.067Z,69.05
2023-08-27T03:36:58.728Z,68.75
2023-08-27T03:40:06.045Z,68.74
2023-08-27T03:43:12.047Z,68.52
2023-08-27T03:46:21.257Z,68.04
2023-08-27T03:49:30.970Z,68.62
2023-08-27T03:52:42.813Z,68.52
2023-08-27T03:55:54.667Z,68.57
2023-08-27T03:59:13.846Z,68.82
2023-08-27T04:02:24.249Z,69.08
2023-08-27T04:05:33.522Z,68.34
2023-08-27T04:08:45.643Z,67.36
2023-08-27T04:11:53.713Z,67.36
2023-08-27T04:15:01.492Z,67.70
2023-08-27T04:18:13.556Z,67.13
2023-08-27T04:21:24.448Z,67.91
2023-08-27T04:24:32.744Z,67.51
2023-08-27T04:27:42.825Z,67.66
2023-08-27T04:30:51.892Z,67.89
2023-08-27T04:34:05.457Z,66.89
2023-08-27T04:37:11.984Z,67.30
2023-08-27T04:40:18.526Z,67.50
2023-08-27T04:43:27.877Z,67.21
2023-08-27T04:46:49.869Z,66.63
2023-08-27T04:50:02.822Z,67.44
2023-08-27T04:53:14.375Z,67.36
2023-08-27T04:56:24.869Z,66.48
2023-08-27T04:59:39.769Z,66.71
2023-08-27T05:02:46.461Z,66.20
2023-08-27T05:05:58.952Z,66.59
2023-08-27T05:09:07.613Z,66.34
2023-08-27T05:12:24.797Z,66.37
2023-08-27T05:15:32.901Z,66.62
2023-08-27T05:18:40.072Z,66.95
2023-08-27T05:21:55.878Z,66.18
2023-08-27T05:25:08.866Z,66.63
2023-08-27T05:28:18.725Z,66.00
2023-08-27T05:31:28.630Z,66.04
2023-08-27T05:34:38.744Z,66.52
2023-08-27T05:37:51.160Z,66.19
2023-08-27T05:41:00.322Z,65.58
2023-08-27T05:44:08.142Z,65.73
2023-08-27T05:47:18.546Z,64.83
2023-08-27T05:50:25.430Z,65.17
2023-08-27T05:53:40.883Z,65.75
2023-08-27T05:56:52.106Z,66.35
2023-08-27T05:59:59.900Z,65.63
2023-08-27T06:03:23.570Z,66.83
2023-08-27T06:06:34.767Z,66.50
2023-08-27T06:09:46.709Z,66.11
2023-08-27T06:12:53.886Z,65.93
2023-08-27T06:16:00.460Z,66.63
2023-08-27T06:19:08.238Z,66.34
2023-08-27T06:22:14.216Z,66.52
2023-08-27T06:25:23.888Z,66.28
2023-08-27T06:28:35.723Z,65.55
2023-08-27T06:31:45.444Z,65.45
2023-08-27T06:34:56.236Z,65.21
2023-08-27T06:38:03.005Z,64.49
2023-08-27T06:41:12.956Z,64.05
2023-08-27T06:44:21.013Z,63.25
2023-08-27T06:47:30.465Z,63.34
2023-08-27T06:50:37.842Z,62.60
2023-08-27T06:53:43.622Z,62.37
2023-08-27T06:56:52.939Z,62.35
2023-08-27T06:59:58.956Z,62.63
2023-08-27T07:03:10.951Z,62.65
2023-08-27T07:06:24.290Z,62.44
2023-08-27T07:09:36.049Z,62.31
2023-08-27T07:12:47.946Z,62.39
2023-08-27T07:15:54.546Z,61.46
2023-08-27T07:19:00.406Z,60.72
2023-08-27T07:22:08.130Z,61.34
2023-08-27T07:25:18.364Z,60.11
2023-08-27T07:28:28.727Z,59.97
2023-08-27T07:31:43.002Z,59.70
2023-08-27T07:34:52.240Z,59.95
2023-08-27T07:38:06.252Z,60.48
2023-08-27T07:41:15.834Z,60.47
2023-08-27T07:44:24.471Z,59.97
2023-08-27T07:47:37.768Z,59.27
2023-08-27T07:50:46.407Z,58.73
2023-08-27T07:53:53.994Z,58.87
2023-08-27T07:57:02.996Z,59.17
2023-08-27T08:00:23.363Z,58.35
2023-08-27T08:03:30.181Z,57.53
2023-08-27T08:06:37.255Z,56.76
2023-08-27T08:09:45.277Z,56.25
2023-08-27T08:12:52.988Z,56.06
2023-08-27T08:16:11.036Z,55.27
2023-08-27T08:19:17.607Z,55.08
2023-08-27T08:22:28.059Z,53.95
2023-08-27T08:25:37.002Z,54.24
2023-08-27T08:28:46.664Z,53.85
2023-08-27T08:32:04.726Z,53.81
2023-08-27T08:35:18.462Z,53.12
2023-08-27T08:38:26.001Z,53.53
2023-08-27T08:41:44.453Z,53.61
2023-08-27T08:45:06.977Z,54.03
2023-08-27T08:48:16.980Z,53.56
2023-08-27T08:54:39.374Z,54.73
2023-08-27T08:57:55.701Z,55.00
2023-08-27T09:01:01.882Z,54.15
2023-08-27T09:04:12.392Z,54.10
2023-08-27T09:07:21.954Z,53.95
2023-08-27T09:10:29.171Z,53.75
2023-08-27T09:13:35.596Z,53.00
2023-08-27T09:16:42.253Z,52.94
2023-08-27T09:19:52.399Z,52.39
2023-08-27T09:23:00.877Z,52.48
2023-08-27T09:26:08.225Z,52.34
2023-08-27T09:29:16.965Z,52.62
2023-08-27T09:32:28.170Z,52.00
2023-08-27T09:35:45.670Z,51.34
2023-08-27T09:38:55.122Z,51.65
2023-08-27T09:42:04.629Z,51.81
2023-08-27T09:45:13.144Z,51.79
2023-08-27T09:48:28.706Z,52.09
2023-08-27T09:51:40.686Z,51.93
2023-08-27T09:54:47.944Z,51.65
2023-08-27T09:57:56.903Z,51.27
2023-08-27T10:01:04.928Z,51.15
2023-08-27T10:04:11.923Z,50.97
2023-08-27T10:07:22.529Z,50.75
2023-08-27T10:10:33.339Z,50.75
2023-08-27T10:13:46.590Z,49.74
2023-08-27T10:16:53.367Z,49.60
2023-08-27T10:20:04.984Z,49.71
2023-08-27T10:23:15.109Z,49.71
2023-08-27T10:26:26.100Z,49.22
2023-08-27T10:29:32.660Z,50.37
2023-08-27T10:32:43.386Z,50.59
2023-08-27T10:35:59.081Z,50.30
2023-08-27T10:39:14.372Z,50.06
2023-08-27T10:42:34.960Z,49.38
2023-08-27T10:45:42.932Z,50.05
2023-08-27T10:48:57.203Z,50.50
2023-08-27T10:52:18.289Z,49.58
2023-08-27T10:55:40.989Z,50.05
2023-08-27T10:58:53.292Z,48.58
2023-08-27T11:02:13.169Z,49.66
2023-08-27T11:05:31.177Z,49.73
2023-08-27T11:08:48.165Z,50.09
2023-08-27T11:12:05.730Z,49.63
2023-08-27T11:15:20.881Z,50.77
2023-08-27T11:18:29.894Z,50.03
2023-08-27T11:21:53.563Z,49.89
2023-08-27T11:25:02.164Z,50.07
2023-08-27T11:28:22.170Z,49.76
2023-08-27T11:31:32.310Z,49.61
2023-08-27T11:34:46.522Z,49.62
2023-08-27T11:37:58.590Z,49.94
2023-08-27T11:41:05.795Z,49.89
2023-08-27T11:44:17.756Z,50.05
2023-08-27T11:47:31.769Z,50.18
2023-08-27T11:50:47.481Z,49.70
2023-08-27T11:53:55.660Z,49.07
2023-08-27T11:57:04.902Z,48.57
2023-08-27T12:00:18.322Z,49.19
2023-08-27T12:03:25.204Z,48.87
2023-08-27T12:06:33.134Z,48.39
2023-08-27T12:09:39.759Z,48.24
2023-08-27T12:12:48.967Z,48.09
2023-08-27T12:15:58.522Z,47.82
2023-08-27T12:19:10.091Z,47.74
2023-08-27T12:22:19.751Z,47.93
2023-08-27T12:25:29.016Z,48.47
2023-08-27T12:28:39.334Z,49.02
2023-08-27T12:31:50.246Z,49.14
2023-08-27T12:34:57.564Z,48.56
2023-08-27T12:38:03.686Z,48.24
2023-08-27T12:41:10.478Z,48.24
2023-08-27T12:44:17.361Z,48.13
2023-08-27T12:47:30.966Z,48.08
2023-08-27T12:50:38.300Z,47.94
2023-08-27T12:53:47.385Z,47.32
2023-08-27T12:56:54.154Z,46.71
2023-08-27T13:00:01.664Z,47.22
2023-08-27T13:03:10.409Z,47.13
2023-08-27T13:06:17.125Z,46.55
2023-08-27T13:09:26.916Z,46.60
2023-08-27T13:12:36.263Z,47.07
2023-08-27T13:15:42.814Z,46.94
2023-08-27T13:18:52.372Z,47.15
2023-08-27T13:22:12.298Z,47.86
2023-08-27T13:25:25.310Z,46.82
2023-08-27T13:28:35.251Z,47.58
2023-08-27T13:31:49.311Z,47.10
2023-08-27T13:35:02.036Z,46.85
2023-08-27T13:38:09.591Z,46.33
2023-08-27T13:41:17.307Z,46.78
2023-08-27T13:44:24.274Z,46.81
2023-08-27T13:47:34.314Z,45.96
2023-08-27T13:50:45.974Z,45.77
2023-08-27T13:53:53.335Z,46.30
2023-08-27T13:57:02.171Z,47.11
2023-08-27T14:00:12.714Z,46.73
2023-08-27T14:03:22.882Z,46.80
2023-08-27T14:06:38.460Z,46.48
2023-08-27T14:09:45.565Z,46.59
2023-08-27T14:12:51.712Z,47.35
2023-08-27T14:15:58.428Z,47.26
2023-08-27T14:19:05.321Z,47.10
2023-08-27T14:22:14.790Z,46.06
2023-08-27T14:25:20.661Z,46.24
2023-08-27T14:28:28.679Z,45.98
2023-08-27T14:31:39.602Z,46.12
2023-08-27T14:34:46.988Z,45.96
2023-08-27T14:37:56.676Z,45.15
2023-08-27T14:41:05.458Z,45.95
2023-08-27T14:44:15.467Z,45.43
2023-08-27T14:47:25.277Z,45.09
2023-08-27T14:50:39.724Z,44.96
2023-08-27T14:53:49.863Z,45.37
2023-08-27T14:57:09.355Z,45.42
2023-08-27T15:00:22.603Z,45.36
2023-08-27T15:03:33.292Z,45.14
2023-08-27T15:06:40.310Z,45.77
2023-08-27T15:09:51.593Z,45.19
2023-08-27T15:13:00.794Z,45.13
2023-08-27T15:16:07.347Z,44.71
2023-08-27T15:19:14.357Z,44.75
2023-08-27T15:22:24.535Z,44.12
2023-08-27T15:25:34.008Z,44.28
2023-08-27T15:28:40.509Z,44.59
2023-08-27T15:31:48.320Z,44.45
2023-08-27T15:34:54.392Z,45.10
2023-08-27T15:38:02.188Z,45.36
2023-08-27T15:41:12.769Z,45.26
2023-08-27T15:44:19.625Z,45.41
2023-08-27T15:47:26.366Z,44.82
2023-08-27T15:50:33.591Z,44.81
2023-08-27T15:53:44.374Z,45.09
2023-08-27T15:56:54.172Z,44.63
2023-08-27T16:00:00.363Z,44.21
2023-08-27T16:03:08.408Z,43.78
2023-08-27T16:06:14.626Z,44.26
2023-08-27T16:09:22.040Z,45.32
2023-08-27T16:12:34.155Z,45.20
2023-08-27T16:15:41.720Z,45.85
2023-08-27T16:18:49.202Z,46.27
2023-08-27T16:21:55.898Z,46.41
2023-08-27T16:25:01.690Z,46.68
2023-08-27T16:28:11.463Z,47.42
2023-08-27T16:31:22.221Z,47.84
2023-08-27T16:34:29.518Z,48.08
2023-08-27T16:37:35.822Z,48.28
2023-08-27T16:40:43.785Z,48.62
2023-08-27T16:43:56.320Z,48.71
2023-08-27T16:47:04.442Z,49.09
2023-08-27T16:50:14.258Z,49.49
2023-08-27T16:53:23.429Z,49.44
2023-08-27T16:56:29.577Z,49.75
2023-08-27T16:59:40.826Z,49.81
2023-08-27T17:02:46.880Z,50.29
2023-08-27T17:06:00.339Z,51.00
2023-08-27T17:09:06.523Z,51.51
2023-08-27T17:12:13.731Z,51.93
2023-08-27T17:15:22.705Z,52.22
2023-08-27T17:18:29.355Z,52.39
2023-08-27T17:21:35.647Z,52.97
2023-08-27T17:24:46.376Z,53.05
2023-08-27T17:27:52.462Z,53.50
2023-08-27T17:31:02.023Z,54.00
2023-08-27T17:34:08.403Z,54.28
2023-08-27T17:37:15.171Z,54.60
2023-08-27T17:40:21.653Z,54.81
2023-08-27T17:43:29.045Z,55.30
2023-08-27T17:46:37.618Z,55.48
2023-08-27T17:49:48.771Z,55.90
2023-08-27T17:52:56.610Z,56.44
2023-08-27T17:56:04.855Z,56.47
2023-08-27T17:59:12.924Z,56.71
2023-08-27T18:02:29.566Z,57.11
2023-08-27T18:05:38.548Z,57.38
2023-08-27T18:08:45.446Z,57.71
2023-08-27T18:11:52.437Z,57.88
2023-08-27T18:15:00.682Z,58.03
2023-08-27T18:18:12.587Z,58.27
2023-08-27T18:21:25.259Z,58.61
2023-08-27T18:24:38.603Z,58.88
2023-08-27T18:27:50.065Z,59.15
2023-08-27T18:30:59.931Z,59.19
2023-08-27T18:34:09.522Z,59.09
2023-08-27T18:37:15.485Z,59.10
2023-08-27T18:40:22.649Z,59.25
2023-08-27T18:43:37.171Z,59.70
2023-08-27T18:46:46.230Z,59.85
2023-08-27T18:49:55.339Z,59.98
2023-08-27T18:53:04.488Z,59.96
2023-08-27T18:56:10.877Z,59.95
2023-08-27T18:59:19.542Z,59.88
2023-08-27T19:02:26.808Z,60.03
2023-08-27T19:05:42.176Z,59.88
2023-08-27T19:08:55.578Z,60.14
2023-08-27T19:12:10.802Z,60.27
2023-08-27T19:15:20.444Z,60.49
2023-08-27T19:18:31.045Z,60.73
2023-08-27T19:21:39.755Z,60.99
2023-08-27T19:24:47.897Z,61.07
2023-08-27T19:27:54.970Z,61.47
2023-08-27T19:31:05.716Z,61.87
2023-08-27T19:34:15.522Z,61.95
2023-08-27T19:37:25.246Z,62.35
2023-08-27T19:40:31.251Z,62.47
2023-08-27T19:43:38.256Z,62.67
2023-08-27T19:46:44.613Z,62.80
2023-08-27T19:49:52.913Z,62.88
2023-08-27T19:53:03.811Z,62.96
2023-08-27T19:56:12.518Z,63.30
2023-08-27T19:59:18.707Z,63.20
2023-08-27T20:02:26.034Z,63.38
2023-08-27T20:05:32.249Z,63.57
2023-08-27T20:08:41.630Z,63.49
2023-08-27T20:11:47.857Z,63.65
2023-08-27T20:14:57.411Z,63.86
2023-08-27T20:18:05.500Z,64.14
2023-08-27T20:21:12.532Z,64.28
2023-08-27T20:24:24.658Z,64.39
2023-08-27T20:27:32.401Z,64.42
2023-08-27T20:30:39.312Z,64.82
2023-08-27T20:33:47.024Z,64.62
2023-08-27T20:36:53.019Z,64.89
2023-08-27T20:40:02.299Z,64.73
2023-08-27T20:43:12.647Z,64.81
2023-08-27T20:46:21.377Z,64.82
2023-08-27T20:49:27.487Z,64.98
2023-08-27T20:52:34.450Z,65.15
2023-08-27T20:55:42.880Z,65.51
2023-08-27T20:58:50.713Z,65.80
2023-08-27T21:01:58.848Z,65.68
2023-08-27T21:05:06.632Z,65.51
2023-08-27T21:08:12.709Z,65.56
2023-08-27T21:11:22.400Z,65.57
2023-08-27T21:14:32.786Z,65.75
2023-08-27T21:17:39.544Z,65.53
2023-08-27T21:20:45.350Z,65.60
2023-08-27T21:23:52.653Z,65.81
2023-08-27T21:27:04.007Z,65.96
2023-08-27T21:30:12.968Z,65.97
2023-08-27T21:33:19.455Z,66.39
2023-08-27T21:36:27.500Z,66.55
2023-08-27T21:39:36.260Z,66.49
2023-08-27T21:42:50.494Z,67.01
2023-08-27T21:45:56.300Z,67.03
2023-08-27T21:49:05.313Z,67.39
2023-08-27T21:52:12.985Z,67.50
2023-08-27T21:55:19.722Z,67.61
2023-08-27T21:58:28.830Z,67.77
2023-08-27T22:01:36.965Z,68.10
2023-08-27T22:04:45.017Z,68.38
2023-08-27T22:07:52.334Z,68.89
2023-08-27T22:10:59.845Z,69.31
2023-08-27T22:14:11.071Z,70.13
2023-08-27T22:17:17.550Z,71.06
2023-08-27T22:20:24.827Z,71.78
2023-08-27T22:23:37.842Z,72.10
2023-08-27T22:26:46.110Z,72.56
2023-08-27T22:30:07.925Z,72.68
2023-08-27T22:33:16.909Z,72.48
2023-08-27T22:36:29.708Z,72.10
2023-08-27T22:39:36.605Z,71.75
2023-08-27T22:42:43.443Z,71.20
2023-08-27T22:45:53.776Z,70.84
2023-08-27T22:49:03.606Z,71.12
2023-08-27T22:52:17.298Z,71.65
2023-08-27T22:55:27.718Z,71.75
2023-08-27T22:58:43.723Z,72.95
2023-08-27T23:01:55.898Z,73.63
2023-08-27T23:05:03.493Z,74.31
2023-08-27T23:08:10.806Z,74.64
2023-08-27T23:11:21.028Z,75.89
2023-08-27T23:14:33.977Z,75.98
2023-08-27T23:17:43.492Z,75.92
2023-08-27T23:21:06.961Z,74.85
2023-08-27T23:24:18.948Z,75.28
2023-08-27T23:27:26.314Z,74.92
2023-08-27T23:30:33.722Z,74.70
2023-08-27T23:33:44.552Z,74.84
2023-08-27T23:36:55.662Z,74.39
2023-08-27T23:40:03.509Z,73.44
2023-08-27T23:43:15.062Z,73.07
2023-08-27T23:46:21.685Z,73.07
2023-08-27T23:49:32.829Z,72.83
2023-08-27T23:52:40.382Z,72.73
2023-08-27T23:55:46.944Z,72.56
2023-08-27T23:58:54.743Z,72.97
